Time;durP1;ratioP1;P1;durP2;ratioP2;P2;SDS_P1;SDS_P2;PMS_P1;PMS_P2;Temp;Humidity;BMP_temperature;BMP_pressure;BME280_temperature;BME280_humidity;BME280_pressure;Samples;Min_cycle;Max_cycle;Signal;HPM_P1;HPM_P2
2022/05/10 00:00:58;;;;;;;;;20.50;19.50;;;;;22.12;42.80;101430.13;5036282;28;45390;-53
2022/05/10 00:03:26;;;;;;;;;23.50;18.75;;;;;22.04;43.10;101427.88;5036903;28;45351;-50
2022/05/10 00:05:51;;;;;;;;;18.00;17.20;;;;;22.04;42.89;101431.47;5019967;28;45638;-49
2022/05/10 00:08:17;;;;;;;;;18.25;17.25;;;;;22.06;43.08;101431.22;5037965;28;45445;-52
2022/05/10 00:10:43;;;;;;;;;19.75;17.50;;;;;22.08;42.93;101423.38;5003358;28;45427;-53
2022/05/10 00:13:08;;;;;;;;;18.75;17.75;;;;;22.04;42.94;101411.09;5037882;28;45384;-50
2022/05/10 00:15:34;;;;;;;;;18.50;17.25;;;;;21.83;42.95;101382.22;5036685;28;45714;-52
2022/05/10 00:17:59;;;;;;;;;14.75;14.50;;;;;22.05;43.11;101416.38;5019337;28;47029;-50
2022/05/10 00:20:26;;;;;;;;;19.00;19.00;;;;;22.01;43.11;101418.06;5037758;28;45805;-52
2022/05/10 00:22:51;;;;;;;;;19.20;16.60;;;;;22.03;42.91;101417.78;5037569;28;45315;-52
2022/05/10 00:25:23;;;;;;;;;21.75;21.75;;;;;22.03;43.00;101412.19;5037736;28;45545;-52
2022/05/10 00:27:49;;;;;;;;;22.20;17.80;;;;;22.03;43.28;101412.19;5020204;28;47861;-49
2022/05/10 00:30:15;;;;;;;;;16.25;15.75;;;;;21.96;43.13;101403.22;5037202;28;45330;-49
2022/05/10 00:32:40;;;;;;;;;17.25;17.25;;;;;21.84;43.12;101387.53;5036298;28;45322;-54
2022/05/10 00:35:10;;;;;;;;;19.25;19.00;;;;;21.90;43.36;101417.19;5019897;28;45258;-54
2022/05/10 00:37:36;;;;;;;;;20.60;17.20;;;;;21.90;43.32;101402.38;5036088;28;46550;-53
2022/05/10 00:40:02;;;;;;;;;5.25;3.50;;;;;21.82;43.59;101400.94;5035986;28;45432;-48
2022/05/10 00:42:46;;;;;;;;;20.00;17.60;;;;;21.81;43.38;101393.66;5037248;28;45484;-52
2022/05/10 00:45:15;;;;;;;;;16.80;16.80;;;;;21.63;43.46;101375.41;5020714;28;45432;-48
2022/05/10 00:48:05;;;;;;;;;16.80;15.80;;;;;21.76;43.77;101399.22;5019454;28;46970;-49
2022/05/10 00:50:36;;;;;;;;;18.60;16.00;;;;;21.72;43.73;101386.94;5037115;28;45471;-52
2022/05/10 00:53:11;;;;;;;;;18.80;18.80;;;;;21.78;43.55;101397.00;5069515;28;45685;-49
2022/05/10 00:56:06;;;;;;;;;22.20;19.40;;;;;21.73;43.70;101386.66;5020417;28;45312;-49
2022/05/10 00:58:35;;;;;;;;;17.80;17.60;;;;;21.68;43.73;101381.00;5033550;28;45435;-49
2022/05/10 01:01:00;;;;;;;;;18.80;17.00;;;;;21.63;43.96;101379.03;5036981;28;45820;-54
2022/05/10 01:03:30;;;;;;;;;16.75;15.00;;;;;21.61;44.07;101375.66;5035372;28;45454;-48
2022/05/10 01:06:27;;;;;;;;;19.60;19.60;;;;;21.57;44.01;101373.69;5019452;28;45545;-53
2022/05/10 01:09:12;;;;;;;;;19.60;19.60;;;;;21.50;44.21;101380.34;5035543;28;45368;-54
2022/05/10 01:11:56;;;;;;;;;14.20;13.40;;;;;21.49;44.12;101380.63;5020075;28;45336;-48
2022/05/10 01:14:27;;;;;;;;;19.60;18.20;;;;;21.35;44.08;101357.94;5036981;28;45443;-48
2022/05/10 01:16:52;;;;;;;;;16.60;15.80;;;;;21.48;44.46;101379.78;5019388;28;45531;-50
2022/05/10 01:19:18;;;;;;;;;19.50;17.75;;;;;21.43;44.17;101374.19;5035293;28;46252;-49
2022/05/10 01:22:03;;;;;;;;;18.75;15.50;;;;;21.21;44.29;101332.44;5035909;28;45465;-51
2022/05/10 01:24:53;;;;;;;;;19.80;16.20;;;;;21.37;44.53;101362.16;5019590;28;45399;-51
2022/05/10 01:27:29;;;;;;;;;20.80;17.80;;;;;21.33;44.54;101360.13;5036964;28;45235;-50
2022/05/10 01:30:11;;;;;;;;;17.20;16.60;;;;;21.35;44.56;101355.16;5017895;28;46388;-49
2022/05/10 01:35:30;;;;;;;;;21.40;18.00;;;;;21.38;44.49;101361.03;5036294;28;45367;-50
2022/05/10 01:37:59;;;;;;;;;19.80;16.80;;;;;21.33;44.19;101352.63;5020240;28;45667;-51
2022/05/10 01:40:28;;;;;;;;;15.60;15.60;;;;;21.40;44.37;101349.59;5016020;28;46451;-51
2022/05/10 01:43:13;;;;;;;;;18.00;15.60;;;;;21.34;44.43;101347.88;5035537;28;45440;-48
2022/05/10 01:45:41;;;;;;;;;14.00;13.80;;;;;21.30;44.76;101349.53;5019608;28;45451;-53
2022/05/10 01:48:08;;;;;;;;;23.00;17.00;;;;;21.31;44.68;101346.47;5018679;28;45361;-52
2022/05/10 01:50:36;;;;;;;;;14.80;14.80;;;;;21.34;44.59;101347.88;5034937;28;46308;-51
2022/05/10 01:53:20;;;;;;;;;19.40;19.40;;;;;21.30;44.43;101344.81;5036014;28;45843;-48
2022/05/10 01:55:52;;;;;;;;;20.00;18.00;;;;;21.20;44.64;101350.31;5068201;28;45488;-49
2022/05/10 01:58:28;;;;;;;;;14.00;14.00;;;;;21.02;44.80;101312.53;5018837;28;45463;-49
2022/05/10 02:00:57;;;;;;;;;16.20;16.00;;;;;21.20;44.73;101342.78;5034183;28;46980;-51
2022/05/10 02:03:35;;;;;;;;;17.40;15.40;;;;;20.80;44.81;101282.75;5034646;28;45416;-54
2022/05/10 02:06:20;;;;;;;;;18.60;16.40;;;;;21.08;44.88;101336.56;5034789;28;45334;-51
2022/05/10 02:09:04;;;;;;;;;17.80;17.80;;;;;21.06;45.10;101335.97;5019706;28;45600;-50
2022/05/10 02:11:29;;;;;;;;;23.00;20.60;;;;;20.94;45.21;101323.06;5035787;28;45982;-51
2022/05/10 02:14:05;;;;;;;;;14.75;14.75;;;;;20.78;45.14;101296.13;5017564;28;45375;-50
2022/05/10 02:16:55;;;;;;;;;19.40;17.80;;;;;20.95;45.07;101323.91;5036085;28;45320;-53
2022/05/10 02:19:44;;;;;;;;;16.40;15.60;;;;;20.96;45.54;101326.44;5036004;28;45333;-49
2022/05/10 02:22:20;;;;;;;;;18.20;18.20;;;;;20.89;45.54;101317.47;5028619;28;46925;-49
2022/05/10 02:24:50;;;;;;;;;20.20;17.00;;;;;20.89;45.57;101328.63;5034561;28;45467;-52
2022/05/10 02:27:19;;;;;;;;;18.20;18.00;;;;;20.70;45.64;101303.03;5017523;28;45354;-51
2022/05/10 02:29:50;;;;;;;;;16.80;16.60;;;;;20.81;46.16;101312.34;5034651;28;45364;-54
2022/05/10 02:35:13;;;;;;;;;21.40;19.80;;;;;20.78;45.83;101327.66;5034311;28;45468;-54
2022/05/10 02:37:39;;;;;;;;;16.20;16.20;;;;;20.85;45.83;101322.72;5035641;28;45315;-53
2022/05/10 02:40:05;;;;;;;;;20.50;18.00;;;;;20.65;45.90;101294.66;5035333;28;45315;-51
2022/05/10 02:42:31;;;;;;;;;20.00;18.60;;;;;20.72;45.92;101320.38;5034804;28;45753;-52
2022/05/10 02:44:56;;;;;;;;;18.25;17.25;;;;;20.64;46.36;101318.91;5034214;28;45421;-49
2022/05/10 02:47:33;;;;;;;;;19.75;17.50;;;;;20.54;46.09;101293.75;5035213;28;45620;-51
2022/05/10 02:49:59;;;;;;;;;19.60;17.60;;;;;20.67;46.57;101318.38;5035670;28;45161;-49
2022/05/10 02:52:24;;;;;;;;;20.50;19.50;;;;;20.74;46.26;101309.78;5034377;28;45596;-48
2022/05/10 02:55:02;;;;;;;;;22.00;19.25;;;;;20.69;46.21;101288.28;5034531;28;45426;-54
2022/05/10 02:57:28;;;;;;;;;18.80;17.80;;;;;20.80;46.22;101319.00;5053893;28;45489;-49
2022/05/10 02:59:54;;;;;;;;;20.00;18.50;;;;;20.80;46.25;101313.44;5070716;28;45485;-49
2022/05/10 03:02:24;;;;;;;;;21.60;19.20;;;;;20.77;46.37;101300.03;5070446;28;45352;-52
2022/05/10 03:04:53;;;;;;;;;22.80;18.20;;;;;20.72;46.51;101295.28;5037177;28;45575;-53
2022/05/10 03:07:19;;;;;;;;;14.20;14.20;;;;;20.74;46.51;101301.41;5038302;28;45492;-54
2022/05/10 03:09:44;;;;;;;;;21.25;18.25;;;;;20.74;46.71;101300.59;5038533;28;45428;-50
2022/05/10 03:12:10;;;;;;;;;22.25;21.25;;;;;20.69;46.41;101291.06;5038162;28;45333;-49
2022/05/10 03:14:36;;;;;;;;;20.00;18.20;;;;;20.68;46.64;101300.53;5037769;28;45338;-49
2022/05/10 03:17:04;;;;;;;;;19.75;17.75;;;;;20.66;46.74;101296.34;5038637;28;45276;-50
2022/05/10 03:19:30;;;;;;;;;17.00;14.80;;;;;20.57;46.71;101280.09;5038083;28;45339;-51
2022/05/10 03:21:56;;;;;;;;;17.60;17.60;;;;;20.63;46.72;101297.72;5037928;28;46672;-51
2022/05/10 03:24:21;;;;;;;;;16.75;14.75;;;;;20.57;46.80;101288.47;5037818;28;45515;-49
2022/05/10 03:26:48;;;;;;;;;18.25;15.50;;;;;20.54;47.04;101285.38;5038322;28;45294;-51
2022/05/10 03:29:15;;;;;;;;;16.80;16.40;;;;;20.60;46.62;101284.31;5038170;28;45701;-53
2022/05/10 03:31:40;;;;;;;;;21.20;21.20;;;;;20.49;46.81;101274.19;5037533;28;45403;-51
2022/05/10 03:36:50;;;;;;;;;19.60;16.40;;;;;20.47;46.79;101274.44;5037973;28;45331;-52
2022/05/10 03:39:15;;;;;;;;;19.50;17.50;;;;;20.39;47.13;101278.53;5036732;28;45720;-50
2022/05/10 03:41:41;;;;;;;;;18.25;18.25;;;;;20.36;47.03;101278.22;5035952;28;46401;-48
2022/05/10 03:44:07;;;;;;;;;18.40;16.60;;;;;20.28;47.01;101262.84;5037732;28;45343;-48
2022/05/10 03:46:33;;;;;;;;;22.25;21.00;;;;;20.25;47.21;101260.59;5037659;28;45285;-51
2022/05/10 03:48:58;;;;;;;;;16.25;16.25;;;;;20.25;47.32;101268.94;5037998;28;45598;-50
2022/05/10 03:51:24;;;;;;;;;23.50;21.50;;;;;20.25;47.43;101260.59;5037585;28;45251;-48
2022/05/10 03:53:49;;;;;;;;;17.00;16.00;;;;;20.21;47.32;101268.63;5037586;28;45452;-50
2022/05/10 03:56:15;;;;;;;;;21.25;19.75;;;;;20.20;47.38;101263.31;5036144;28;45419;-53
2022/05/10 03:58:40;;;;;;;;;16.75;16.75;;;;;20.14;47.41;101256.88;5037858;28;45330;-51
2022/05/10 04:01:09;;;;;;;;;20.25;19.25;;;;;20.15;47.69;101261.31;5037376;28;46127;-48
2022/05/10 04:03:34;;;;;;;;;19.20;18.40;;;;;20.08;47.68;101269.91;5037642;28;45631;-47
2022/05/10 04:06:00;;;;;;;;;20.50;20.50;;;;;20.01;47.80;101267.31;5037943;28;45380;-48
2022/05/10 04:08:27;;;;;;;;;20.00;18.50;;;;;19.97;48.23;101268.13;5037820;28;45619;-52
2022/05/10 04:10:53;;;;;;;;;18.80;18.80;;;;;20.05;47.95;101264.84;5037254;28;46740;-50
2022/05/10 04:13:18;;;;;;;;;19.25;18.75;;;;;20.01;47.61;101266.50;5070375;28;45263;-52
2022/05/10 04:15:43;;;;;;;;;21.00;20.00;;;;;19.90;47.79;101260.78;5036016;28;45506;-52
2022/05/10 04:18:09;;;;;;;;;22.00;19.00;;;;;19.97;47.99;101270.91;5038103;28;45181;-51
2022/05/10 04:20:35;;;;;;;;;21.50;21.50;;;;;20.01;47.90;101252.56;5037091;28;46905;-55
2022/05/10 04:23:00;;;;;;;;;18.25;18.25;;;;;20.14;47.54;101268.00;5036119;28;45905;-51
2022/05/10 04:25:26;;;;;;;;;20.75;18.75;;;;;20.17;47.51;101268.31;5037397;28;45369;-49
2022/05/10 04:27:52;;;;;;;;;18.00;18.00;;;;;19.99;47.25;101238.06;5036098;28;45641;-50
2022/05/10 04:30:18;;;;;;;;;18.40;18.00;;;;;20.00;47.49;101236.94;5037238;28;46340;-48
2022/05/10 04:32:44;;;;;;;;;16.25;15.00;;;;;20.16;47.07;101252.72;5036031;28;45403;-50
2022/05/10 04:35:09;;;;;;;;;12.75;10.25;;;;;20.18;47.04;101258.84;5037279;28;45529;-53
2022/05/10 04:37:35;;;;;;;;;22.00;20.25;;;;;20.13;47.24;101261.59;5036207;28;45493;-48
2022/05/10 04:42:45;;;;;;;;;15.60;15.20;;;;;20.26;46.95;101259.47;5016176;28;45362;-48
2022/05/10 04:45:11;;;;;;;;;17.50;17.50;;;;;20.17;46.87;101248.81;5017165;28;45355;-47
2022/05/10 04:47:37;;;;;;;;;19.60;18.80;;;;;20.20;46.87;101260.53;5033111;28;45564;-48
2022/05/10 04:50:03;;;;;;;;;20.00;19.75;;;;;20.18;46.88;101263.59;5016854;28;45350;-49
2022/05/10 04:52:28;;;;;;;;;18.00;18.00;;;;;20.11;47.03;101257.41;5017326;28;45252;-47
2022/05/10 04:54:54;;;;;;;;;20.50;17.50;;;;;19.97;47.15;101243.06;5017324;28;45404;-48
2022/05/10 04:57:19;;;;;;;;;16.00;16.00;;;;;20.16;47.14;101260.22;5017527;28;45672;-52
2022/05/10 04:59:45;;;;;;;;;17.25;16.00;;;;;20.12;47.03;101262.69;5016909;28;46042;-53
2022/05/10 05:02:11;;;;;;;;;19.75;19.75;;;;;20.14;47.12;101271.66;5014839;28;45346;-50
2022/05/10 05:04:36;;;;;;;;;20.50;19.25;;;;;19.95;46.90;101236.88;5017083;28;45543;-49
2022/05/10 05:07:02;;;;;;;;;20.50;19.00;;;;;20.22;46.93;101264.72;4998856;28;45723;-52
2022/05/10 05:09:27;;;;;;;;;19.00;17.25;;;;;20.29;46.72;101267.31;5016753;28;45421;-50
2022/05/10 05:11:53;;;;;;;;;18.00;15.75;;;;;20.20;46.92;101268.88;5016720;28;45477;-50
2022/05/10 05:14:18;;;;;;;;;17.25;17.25;;;;;20.00;46.82;101235.00;5016653;28;45475;-52
2022/05/10 05:16:44;;;;;;;;;17.00;16.25;;;;;20.05;46.92;101239.78;5015738;28;45492;-51
2022/05/10 05:19:09;;;;;;;;;21.50;19.75;;;;;20.22;46.98;101264.72;5015740;28;45756;-49
2022/05/10 05:21:35;;;;;;;;;20.25;20.00;;;;;20.28;46.82;101271.22;5016318;28;45726;-50
2022/05/10 05:24:00;;;;;;;;;20.00;20.00;;;;;20.18;46.89;101264.44;5016919;28;45419;-50
2022/05/10 05:26:26;;;;;;;;;20.75;18.25;;;;;20.18;46.82;101267.22;5016510;28;45291;-49
2022/05/10 05:28:51;;;;;;;;;20.25;19.25;;;;;20.21;47.06;101265.84;5031844;28;46962;-51
2022/05/10 05:31:17;;;;;;;;;19.75;18.00;;;;;20.19;46.90;101259.72;5016089;28;45363;-52
2022/05/10 05:33:43;;;;;;;;;17.20;16.20;;;;;20.22;46.81;101272.28;5015218;28;45269;-53
2022/05/10 05:36:09;;;;;;;;;20.00;17.75;;;;;20.15;47.12;101278.91;4992535;28;45741;-50
2022/05/10 05:38:34;;;;;;;;;16.75;16.75;;;;;20.13;47.07;101269.94;5068151;28;45286;-47
2022/05/10 05:41:01;;;;;;;;;16.75;15.50;;;;;20.15;47.18;101275.25;5034479;28;45436;-50
2022/05/10 05:43:27;;;;;;;;;19.80;19.40;;;;;20.20;46.84;101280.88;5034747;28;45420;-51
2022/05/10 05:45:52;;;;;;;;;20.00;20.00;;;;;20.00;46.85;101239.72;5034709;28;45586;-53
2022/05/10 05:48:18;;;;;;;;;19.00;18.50;;;;;20.23;46.70;101274.78;5034325;28;46684;-51
2022/05/10 05:50:44;;;;;;;;;24.60;20.80;;;;;20.02;47.01;101251.47;5035460;28;45390;-50
2022/05/10 05:53:09;;;;;;;;;20.25;19.00;;;;;20.19;46.96;101279.22;5036036;28;45340;-51
2022/05/10 05:55:35;;;;;;;;;23.00;21.75;;;;;19.95;46.95;101245.25;5035800;28;45516;-49
2022/05/10 05:58:00;;;;;;;;;22.50;17.50;;;;;20.16;46.91;101286.16;5034605;28;45718;-49
2022/05/10 06:00:26;;;;;;;;;22.25;21.25;;;;;20.14;47.08;101282.78;5035307;28;45430;-53
2022/05/10 06:02:52;;;;;;;;;20.25;19.75;;;;;20.17;47.13;101281.44;5035678;28;45291;-51
2022/05/10 06:05:21;;;;;;;;;22.00;22.00;;;;;20.20;46.98;101282.81;5035959;28;45608;-48
2022/05/10 06:07:46;;;;;;;;;24.20;23.20;;;;;20.16;47.32;101282.50;5035454;28;46176;-51
2022/05/10 06:10:12;;;;;;;;;19.50;18.50;;;;;20.20;47.04;101274.47;5035566;28;45350;-49
2022/05/10 06:12:38;;;;;;;;;20.00;20.00;;;;;20.04;47.47;101246.47;5035373;28;45408;-47
2022/05/10 06:15:09;;;;;;;;;22.00;18.50;;;;;20.31;47.15;101270.66;5018098;28;45620;-49
2022/05/10 06:17:35;;;;;;;;;22.60;18.80;;;;;19.83;46.68;101190.53;5035401;28;46723;-49
2022/05/10 06:20:04;;;;;;;;;22.00;21.20;;;;;20.42;46.69;101266.88;5035396;28;45396;-52
2022/05/10 06:22:30;;;;;;;;;21.40;20.00;;;;;20.54;46.61;101279.81;5034007;28;45476;-52
2022/05/10 06:24:55;;;;;;;;;20.25;17.75;;;;;20.25;46.46;101225.22;5036004;28;45320;-52
2022/05/10 06:27:21;;;;;;;;;17.50;17.50;;;;;20.53;46.39;101256.63;5035381;28;45697;-48
2022/05/10 06:29:46;;;;;;;;;21.50;21.50;;;;;20.65;46.19;101252.84;5034331;28;45223;-51
2022/05/10 06:32:23;;;;;;;;;20.75;20.00;;;;;20.84;45.92;101275.56;5035300;28;45297;-54
2022/05/10 06:34:50;;;;;;;;;18.20;18.20;;;;;20.91;45.92;101281.75;5018471;28;45417;-53
2022/05/10 06:40:08;;;;;;;;;24.40;23.40;;;;;20.91;45.91;101278.97;5035083;28;45517;-51
2022/05/10 06:42:34;;;;;;;;;23.80;20.20;;;;;20.90;45.96;101273.66;5013892;28;45348;-50
2022/05/10 06:44:59;;;;;;;;;21.00;20.00;;;;;20.92;46.01;101274.25;5015287;28;45304;-49
2022/05/10 06:47:25;;;;;;;;;23.25;21.50;;;;;20.96;45.89;101258.63;5015000;28;45390;-51
2022/05/10 06:49:50;;;;;;;;;20.00;20.00;;;;;21.03;46.30;101264.78;5030446;28;45488;-52
2022/05/10 06:52:17;;;;;;;;;22.00;21.75;;;;;21.10;45.54;101268.22;5015245;28;45414;-55
2022/05/10 06:54:43;;;;;;;;;24.80;20.40;;;;;21.12;45.55;101265.13;5015087;28;45414;-53
2022/05/10 06:57:08;;;;;;;;;14.50;13.25;;;;;21.18;45.52;101266.03;5030216;28;45965;-52
2022/05/10 06:59:34;;;;;;;;;18.50;18.00;;;;;21.23;45.11;101268.81;5015257;28;45477;-50
2022/05/10 07:01:59;;;;;;;;;22.25;22.25;;;;;21.35;45.23;101276.97;5014461;28;45802;-48
2022/05/10 07:04:25;;;;;;;;;22.50;20.00;;;;;21.39;45.14;101269.72;5015786;28;45339;-53
2022/05/10 07:06:51;;;;;;;;;23.00;20.25;;;;;21.41;45.21;101270.31;5014720;28;46172;-55
2022/05/10 07:09:18;;;;;;;;;19.00;18.25;;;;;21.26;44.71;101246.81;5015137;28;45375;-52
2022/05/10 07:11:43;;;;;;;;;25.40;19.20;;;;;21.46;45.11;101272.28;5015268;28;45431;-54
2022/05/10 07:14:09;;;;;;;;;16.50;16.50;;;;;21.43;44.93;101256.91;5014069;28;45809;-56
2022/05/10 07:16:35;;;;;;;;;16.00;15.00;;;;;21.45;44.90;101245.47;5014906;28;45351;-49
2022/05/10 07:19:00;;;;;;;;;17.25;16.50;;;;;21.17;44.85;101189.81;5014882;28;45500;-51
2022/05/10 07:21:26;;;;;;;;;21.75;20.50;;;;;21.65;44.78;101264.22;5014969;28;45589;-51
2022/05/10 07:23:51;;;;;;;;;16.25;16.25;;;;;21.52;44.76;101244.09;5015472;28;45285;-47
2022/05/10 07:26:17;;;;;;;;;23.25;18.75;;;;;21.57;44.61;101234.06;5011376;28;46111;-48
2022/05/10 07:28:42;;;;;;;;;19.50;17.50;;;;;21.76;44.62;101257.59;5041340;28;45436;-50
2022/05/10 07:31:08;;;;;;;;;17.50;16.00;;;;;21.83;44.55;101257.34;5034191;28;45406;-52
2022/05/10 07:33:34;;;;;;;;;16.50;16.50;;;;;21.89;44.24;101261.81;5034745;28;45473;-49
2022/05/10 07:36:42;;;;;;;;;16.25;16.00;;;;;21.92;44.30;101264.06;5016201;28;46184;-49
2022/05/10 07:38:49;;;;;;;;;15.80;15.60;;;;;21.96;44.38;101269.09;5008752;28;45913;-48
2022/05/10 07:41:18;;;;;;;;;21.00;16.25;;;;;21.98;44.31;101264.09;5031363;28;45395;-48
2022/05/10 07:43:44;;;;;;;;;21.20;17.40;;;;;21.99;44.04;101263.78;5033709;28;45862;-55
2022/05/10 07:46:11;;;;;;;;;14.40;13.20;;;;;21.94;44.39;101256.25;5030949;28;45722;-48
2022/05/10 07:48:37;;;;;;;;;16.80;16.80;;;;;22.01;44.30;101266.31;5033138;28;45712;-48
2022/05/10 07:51:03;;;;;;;;;16.80;14.20;;;;;22.01;44.19;101263.53;5040843;28;45890;-51
2022/05/10 07:53:31;;;;;;;;;20.25;19.50;;;;;21.72;44.02;101224.91;5047929;28;45407;-51
2022/05/10 07:55:58;;;;;;;;;14.80;14.80;;;;;22.00;44.08;101261.84;5033139;28;45806;-48
2022/05/10 07:58:23;;;;;;;;;13.20;12.80;;;;;22.02;43.94;101257.66;5031465;28;45492;-52
2022/05/10 08:00:49;;;;;;;;;15.75;15.50;;;;;22.09;43.91;101250.97;5033204;28;45677;-53
2022/05/10 08:03:21;;;;;;;;;17.25;16.00;;;;;22.14;43.92;101253.78;5041624;28;45697;-48
2022/05/10 08:05:47;;;;;;;;;13.80;13.80;;;;;21.98;43.71;101223.00;5053741;28;45806;-48
2022/05/10 08:08:13;;;;;;;;;15.00;14.00;;;;;22.06;43.70;101230.84;5052837;28;45594;-51
2022/05/10 08:10:40;;;;;;;;;17.20;16.20;;;;;22.22;43.45;101250.41;5052292;28;45848;-50
2022/05/10 08:13:12;;;;;;;;;12.80;12.80;;;;;22.21;43.49;101240.34;5053823;28;45421;-52
2022/05/10 08:15:39;;;;;;;;;12.40;12.40;;;;;22.35;43.33;101265.78;5051702;28;45508;-51
2022/05/10 08:18:06;;;;;;;;;14.25;14.25;;;;;22.34;43.41;101264.97;5051820;28;45548;-49
2022/05/10 08:20:32;;;;;;;;;12.60;12.60;;;;;22.38;43.43;101258.78;5053033;28;45429;-50
2022/05/10 08:22:58;;;;;;;;;15.00;14.00;;;;;22.41;43.38;101263.84;5053677;28;45750;-50
2022/05/10 08:25:24;;;;;;;;;12.00;11.00;;;;;22.46;43.47;101261.88;5052689;28;46134;-50
2022/05/10 08:27:50;;;;;;;;;15.75;14.00;;;;;22.38;43.04;101237.28;5024305;28;45427;-52
2022/05/10 08:30:17;;;;;;;;;16.50;13.75;;;;;22.59;43.42;101259.66;5053342;28;45476;-49
2022/05/10 08:32:43;;;;;;;;;17.40;14.80;;;;;22.63;42.78;101268.31;5034435;28;45449;-49
2022/05/10 08:35:10;;;;;;;;;14.25;13.50;;;;;22.63;43.30;101265.53;5050253;28;46602;-48
2022/05/10 08:37:37;;;;;;;;;11.80;11.40;;;;;22.63;43.41;101262.72;5041588;27;45385;-48
2022/05/10 08:40:07;;;;;;;;;15.80;13.80;;;;;22.65;43.27;101260.47;5038511;28;45746;-49
2022/05/10 08:42:34;;;;;;;;;13.20;13.00;;;;;22.70;43.15;101257.69;5021713;28;45963;-48
2022/05/10 08:45:01;;;;;;;;;13.80;13.00;;;;;22.74;42.74;101250.41;5032694;28;45826;-48
2022/05/10 08:47:27;;;;;;;;;13.00;12.60;;;;;22.82;42.27;101251.78;4997952;28;45472;-48
2022/05/10 08:49:58;;;;;;;;;15.80;11.20;;;;;22.63;42.07;101220.78;5031145;28;45910;-48
2022/05/10 08:52:30;;;;;;;;;12.20;12.20;;;;;22.87;41.68;101249.84;5077858;27;46069;-48
2022/05/10 08:54:56;;;;;;;;;11.60;11.60;;;;;22.96;41.82;101243.66;5049624;28;45481;-52
2022/05/10 08:57:48;;;;;;;;;12.00;11.00;;;;;23.04;41.75;101250.63;5052441;28;45588;-48
2022/05/10 09:00:40;;;;;;;;;13.20;11.60;;;;;23.17;41.77;101247.22;5032234;28;45430;-51
2022/05/10 09:03:28;;;;;;;;;17.60;14.00;;;;;23.27;41.34;101247.16;5065524;28;45573;-48
2022/05/10 09:05:56;;;;;;;;;14.00;12.40;;;;;23.38;41.12;101245.19;5032606;28;46935;-50
2022/05/10 09:08:35;;;;;;;;;12.60;11.20;;;;;23.45;41.09;101246.84;5030747;28;45490;-50
2022/05/10 09:11:03;;;;;;;;;15.60;12.60;;;;;23.51;41.00;101256.91;5031127;28;45499;-48
2022/05/10 09:13:29;;;;;;;;;10.40;10.40;;;;;23.59;40.91;101253.53;5064894;28;45345;-47
2022/05/10 09:15:56;;;;;;;;;12.50;12.50;;;;;23.71;39.75;101243.91;5053824;28;45842;-49
2022/05/10 09:18:27;;;;;;;;;9.60;9.60;;;;;23.79;39.39;101251.69;5050965;28;45500;-48
2022/05/10 09:21:15;;;;;;;;;12.00;11.00;;;;;23.90;38.86;101246.91;5052453;28;45741;-54
2022/05/10 09:24:03;;;;;;;;;9.80;9.80;;;;;24.09;38.83;101249.88;5049334;28;45708;-53
2022/05/10 09:26:39;;;;;;;;;15.00;14.00;;;;;24.17;38.32;101234.41;5050669;28;46760;-51
2022/05/10 09:29:16;;;;;;;;;11.20;11.20;;;;;24.28;38.46;101244.38;5050091;28;45516;-52
2022/05/10 09:37:31;;;;;;;;;14.60;13.20;;;;;24.14;38.11;101154.50;5032830;27;45558;-49
2022/05/10 09:39:56;;;;;;;;;12.20;11.40;;;;;24.77;38.13;101231.28;5032902;28;45682;-50
2022/05/10 09:42:39;;;;;;;;;15.25;14.00;;;;;24.88;38.13;101228.41;5037952;28;45372;-50
2022/05/10 09:45:20;;;;;;;;;12.60;12.60;;;;;25.00;37.91;101231.66;5030898;28;45829;-50
2022/05/10 09:48:02;;;;;;;;;12.20;9.40;;;;;24.99;37.62;101213.13;5015298;28;46596;-49
2022/05/10 09:50:41;;;;;;;;;14.60;13.40;;;;;25.13;37.97;101224.47;5050401;28;45812;-47
2022/05/10 09:53:11;;;;;;;;;13.20;13.20;;;;;25.04;37.12;101199.00;5049107;28;45869;-49
2022/05/10 09:55:38;;;;;;;;;12.20;11.20;;;;;25.23;36.72;101223.50;5052258;28;45476;-49
2022/05/10 09:58:24;;;;;;;;;25.00;19.40;;;;;25.25;37.10;101220.41;5050289;28;45798;-52
2022/05/10 10:00:53;;;;;;;;;15.00;14.00;;;;;25.32;36.48;101218.06;5050258;28;45428;-47
2022/05/10 10:03:32;;;;;;;;;11.00;11.00;;;;;25.30;36.19;101217.53;5051830;28;45982;-49
2022/05/10 10:06:18;;;;;;;;;15.40;13.40;;;;;25.36;36.67;101219.13;5048881;28;45718;-51
2022/05/10 10:08:45;;;;;;;;;8.80;8.80;;;;;25.22;36.24;101167.63;5084048;27;47239;-53
2022/05/10 10:11:34;;;;;;;;;13.00;12.00;;;;;25.47;36.11;101205.78;5051241;28;45734;-50
2022/05/10 10:14:08;;;;;;;;;11.80;10.80;;;;;25.59;36.07;101199.72;5043543;28;45406;-49
2022/05/10 10:16:55;;;;;;;;;12.00;12.00;;;;;25.61;36.13;101197.44;5051712;28;45904;-48
2022/05/10 10:19:26;;;;;;;;;16.00;13.60;;;;;25.62;35.45;101206.72;5051054;28;45943;-50
2022/05/10 10:21:56;;;;;;;;;11.00;11.00;;;;;25.66;35.63;101208.63;5049177;28;45436;-47
2022/05/10 10:24:31;;;;;;;;;9.60;8.20;;;;;25.64;35.30;101199.66;5030631;28;45768;-48
2022/05/10 10:26:58;;;;;;;;;12.40;12.20;;;;;25.60;34.43;101207.03;5030080;28;45415;-52
2022/05/10 10:29:37;;;;;;;;;10.00;10.00;;;;;25.44;34.30;101195.97;5023837;28;47535;-48
2022/05/10 10:32:06;;;;;;;;;12.80;12.80;;;;;25.53;34.65;101224.28;5038240;28;45493;-50
2022/05/10 10:34:57;;;;;;;;;12.80;11.40;;;;;24.98;34.62;101117.97;5070299;27;45926;-51
2022/05/10 10:37:33;;;;;;;;;11.40;10.80;;;;;25.61;34.23;101205.06;5040308;27;45486;-51
2022/05/10 10:40:24;;;;;;;;;9.40;9.40;;;;;25.65;34.63;101215.38;5033345;28;45909;-52
2022/05/10 10:43:11;;;;;;;;;13.00;11.00;;;;;25.68;34.68;101214.75;5036847;28;45436;-50
2022/05/10 10:45:47;;;;;;;;;11.40;9.00;;;;;25.65;34.43;101215.38;5063927;28;45595;-56
2022/05/10 10:48:45;;;;;;;;;10.80;10.80;;;;;25.62;34.37;101209.53;5022491;28;45461;-52
2022/05/10 10:51:11;;;;;;;;;12.20;10.80;;;;;25.55;34.40;101210.75;5019123;27;47586;-54
2022/05/10 10:53:38;;;;;;;;;11.00;11.00;;;;;25.61;34.52;101203.06;5023759;28;45815;-52
2022/05/10 10:56:27;;;;;;;;;9.00;7.80;;;;;25.44;34.88;101169.84;5027256;28;45514;-53
2022/05/10 10:58:55;;;;;;;;;9.00;9.00;;;;;25.74;34.40;101198.69;5022203;28;45487;-54
2022/05/10 11:01:47;;;;;;;;;10.80;10.80;;;;;25.54;34.33;101172.56;5029602;28;46550;-52
2022/05/10 11:04:20;;;;;;;;;11.20;10.00;;;;;25.68;34.41;101202.72;5019393;28;45515;-54
2022/05/10 11:06:53;;;;;;;;;11.40;11.00;;;;;25.70;34.35;101195.66;5080092;27;45933;-53
2022/05/10 11:09:42;;;;;;;;;8.40;8.40;;;;;25.66;34.52;101177.72;5029411;28;45455;-49
2022/05/10 11:12:14;;;;;;;;;10.80;9.80;;;;;25.84;34.44;101189.25;5014436;28;46214;-52
2022/05/10 11:14:55;;;;;;;;;9.60;8.40;;;;;25.80;34.04;101158.09;5011862;28;45720;-51
2022/05/10 11:17:21;;;;;;;;;8.00;7.60;;;;;25.35;34.38;101079.81;5016415;28;45345;-51
2022/05/10 11:20:23;;;;;;;;;8.50;7.50;;;;;26.02;34.54;101167.88;5017898;28;45852;-54
2022/05/10 11:22:52;;;;;;;;;10.40;9.60;;;;;26.17;34.21;101157.47;5016473;28;46872;-52
2022/05/10 11:25:39;;;;;;;;;11.00;10.20;;;;;26.25;34.37;101160.47;5018299;28;45322;-50
2022/05/10 11:28:29;;;;;;;;;10.40;10.40;;;;;26.40;33.72;101161.31;5018704;28;45314;-52
2022/05/10 11:31:13;;;;;;;;;11.60;10.80;;;;;26.51;34.03;101156.31;5017502;28;45321;-47
2022/05/10 11:34:07;;;;;;;;;13.00;11.20;;;;;26.51;33.33;101139.44;5017897;28;46687;-49
2022/05/10 11:36:48;;;;;;;;;10.60;10.60;;;;;26.38;33.32;101119.44;5016868;28;45350;-51
2022/05/10 11:39:19;;;;;;;;;9.00;9.00;;;;;26.64;32.15;101149.06;5017920;28;45276;-52
2022/05/10 11:42:03;;;;;;;;;11.60;10.60;;;;;26.84;32.24;101138.53;5018384;28;45481;-49
2022/05/10 11:44:40;;;;;;;;;9.40;9.00;;;;;26.90;32.57;101143.75;5037914;28;46491;-48